Time;durP1;ratioP1;P1;durP2;ratioP2;P2;SDS_P1;SDS_P2;PMS_P1;PMS_P2;Temp;Humidity;BMP_temperature;BMP_pressure;BME280_temperature;BME280_humidity;BME280_pressure;Samples;Min_cycle;Max_cycle;Signal;HPM_P1;HPM_P2
2023/11/19 00:02:08;;;;;;;;;;;;;;;;;;5096721;28;20352;-73
2023/11/19 00:04:35;;;;;;;;;;;;;;;;;;5096999;28;19912;-72
2023/11/19 00:07:03;;;;;;;;;;;;;;;;;;5095069;28;20314;-72
2023/11/19 00:09:29;;;;;;;;;;;;;;;;;;5096589;28;19908;-73
2023/11/19 00:11:55;;;;;;;;;;;;;;;;;;5096595;28;20384;-73
2023/11/19 00:14:21;;;;;;;;;;;;;;;;;;5096142;28;20371;-72
2023/11/19 00:16:47;;;;;;;;;;;;;;;;;;5096725;28;20400;-72
2023/11/19 00:19:13;;;;;;;;;;;;;;;;;;5094718;28;20352;-73
2023/11/19 00:21:41;;;;;;;;;;;;;;;;;;5096806;28;19908;-73
2023/11/19 00:24:08;;;;;;;;;;;;;;;;;;5096459;28;19959;-73
2023/11/19 00:26:34;;;;;;;;;;;;;;;;;;5095892;28;19916;-74
2023/11/19 00:29:00;;;;;;;;;;;;;;;;;;5095953;28;19920;-73
2023/11/19 00:31:27;;;;;;;;;;;;;;;;;;5096075;28;20004;-73
2023/11/19 00:33:53;;;;;;;;;;;;;;;;;;5095738;28;19935;-74
2023/11/19 00:36:19;;;;;;;;;;;;;;;;;;5096134;28;20012;-73
2023/11/19 00:38:45;;;;;;;;;;;;;;;;;;5095721;28;20359;-74
2023/11/19 00:41:11;;;;;;;;;;;;;;;;;;5095617;28;19959;-73
2023/11/19 00:43:37;;;;;;;;;;;;;;;;;;5095893;28;19908;-74
2023/11/19 00:46:04;;;;;;;;;;;;;;;;;;5094653;28;19916;-73
2023/11/19 00:48:31;;;;;;;;;;;;;;;;;;5095623;28;19908;-73
2023/11/19 00:50:57;;;;;;;;;;;;;;;;;;5095773;28;19943;-74
2023/11/19 00:53:23;;;;;;;;;;;;;;;;;;5095845;28;20352;-73
2023/11/19 00:55:49;;;;;;;;;;;;;;;;;;5095465;28;20360;-73
2023/11/19 00:58:17;;;;;;;;;;;;;;;;;;5096087;28;20360;-73
2023/11/19 01:00:43;;;;;;;;;;;;;;;;;;5095671;28;19908;-73
2023/11/19 01:03:09;;;;;;;;;;;;;;;;;;5095440;28;20283;-74
2023/11/19 01:05:35;;;;;;;;;;;;;;;;;;5095675;28;19914;-73
2023/11/19 01:08:04;;;;;;;;;;;;;;;;;;5095478;28;19945;-75
2023/11/19 01:10:30;;;;;;;;;;;;;;;;;;5095052;28;20364;-73
2023/11/19 01:12:56;;;;;;;;;;;;;;;;;;5095705;28;19965;-73
2023/11/19 01:15:22;;;;;;;;;;;;;;;;;;5095398;28;19908;-74
2023/11/19 01:17:48;;;;;;;;;;;;;;;;;;5095369;28;19977;-73
2023/11/19 01:20:14;;;;;;;;;;;;;;;;;;5094022;28;20360;-73
2023/11/19 01:22:40;;;;;;;;;;;;;;;;;;5095182;28;19908;-73
2023/11/19 01:25:06;;;;;;;;;;;;;;;;;;5095168;28;20386;-73
2023/11/19 01:27:34;;;;;;;;;;;;;;;;;;5095135;28;19908;-74
2023/11/19 01:30:02;;;;;;;;;;;;;;;;;;5094451;28;19964;-74
2023/11/19 01:32:27;;;;;;;;;;;;;;;;;;5095090;28;20029;-73
2023/11/19 01:34:53;;;;;;;;;;;;;;;;;;5095215;28;19908;-73
2023/11/19 01:37:19;;;;;;;;;;;;;;;;;;5094969;28;20370;-73
2023/11/19 01:39:46;;;;;;;;;;;;;;;;;;5094967;28;19916;-74
2023/11/19 01:42:12;;;;;;;;;;;;;;;;;;5094877;28;20322;-73
2023/11/19 01:44:38;;;;;;;;;;;;;;;;;;5094496;28;19966;-74
2023/11/19 01:47:04;;;;;;;;;;;;;;;;;;5094811;28;19908;-73
2023/11/19 01:49:30;;;;;;;;;;;;;;;;;;5094702;28;19908;-73
2023/11/19 01:51:56;;;;;;;;;;;;;;;;;;5093509;28;20007;-73
2023/11/19 01:54:22;;;;;;;;;;;;;;;;;;5094663;28;19915;-72
2023/11/19 01:56:47;;;;;;;;;;;;;;;;;;5094595;28;19916;-72
2023/11/19 01:59:14;;;;;;;;;;;;;;;;;;5094178;28;19908;-72
2023/11/19 02:01:40;;;;;;;;;;;;;;;;;;5094672;28;19913;-72
2023/11/19 02:04:06;;;;;;;;;;;;;;;;;;5093157;28;20006;-71
2023/11/19 02:06:32;;;;;;;;;;;;;;;;;;5094060;28;19974;-72
2023/11/19 02:08:57;;;;;;;;;;;;;;;;;;5094378;28;19908;-72
2023/11/19 02:11:29;;;;;;;;;;;;;;;;;;5093017;28;20360;-71
2023/11/19 02:13:55;;;;;;;;;;;;;;;;;;5093932;28;19909;-71
2023/11/19 02:16:20;;;;;;;;;;;;;;;;;;5094284;28;19914;-71
2023/11/19 02:18:46;;;;;;;;;;;;;;;;;;5093916;28;19908;-72
2023/11/19 02:21:14;;;;;;;;;;;;;;;;;;5092898;28;19958;-72
2023/11/19 02:23:40;;;;;;;;;;;;;;;;;;5094182;28;19963;-72
2023/11/19 02:26:08;;;;;;;;;;;;;;;;;;5093736;28;20271;-71
2023/11/19 02:28:34;;;;;;;;;;;;;;;;;;5093931;28;19916;-72
2023/11/19 02:31:00;;;;;;;;;;;;;;;;;;5094000;28;19923;-72
2023/11/19 02:33:26;;;;;;;;;;;;;;;;;;5094506;28;20390;-71
2023/11/19 02:35:52;;;;;;;;;;;;;;;;;;5092749;28;20288;-72
2023/11/19 02:38:18;;;;;;;;;;;;;;;;;;5092633;28;19915;-72
2023/11/19 02:40:44;;;;;;;;;;;;;;;;;;5093623;28;19962;-72
2023/11/19 02:43:10;;;;;;;;;;;;;;;;;;5093977;28;19930;-74
2023/11/19 02:45:36;;;;;;;;;;;;;;;;;;5093985;28;19966;-72
2023/11/19 02:48:02;;;;;;;;;;;;;;;;;;5093640;28;19991;-74
2023/11/19 02:50:28;;;;;;;;;;;;;;;;;;5093890;28;19917;-74
2023/11/19 02:52:54;;;;;;;;;;;;;;;;;;5094077;28;19965;-71
2023/11/19 02:55:20;;;;;;;;;;;;;;;;;;5093436;28;19912;-75
2023/11/19 02:57:48;;;;;;;;;;;;;;;;;;5094197;28;19912;-72
2023/11/19 03:00:14;;;;;;;;;;;;;;;;;;5093774;28;19908;-72
2023/11/19 03:02:44;;;;;;;;;;;;;;;;;;5093763;28;20329;-72
2023/11/19 03:05:10;;;;;;;;;;;;;;;;;;5097812;28;19916;-72
2023/11/19 03:07:36;;;;;;;;;;;;;;;;;;5097814;28;19947;-74
2023/11/19 03:10:05;;;;;;;;;;;;;;;;;;5097368;28;19962;-74
2023/11/19 03:12:31;;;;;;;;;;;;;;;;;;5096522;28;19908;-74
2023/11/19 03:14:57;;;;;;;;;;;;;;;;;;5097374;28;19981;-72
2023/11/19 03:17:24;;;;;;;;;;;;;;;;;;5097680;28;20437;-73
2023/11/19 03:19:50;;;;;;;;;;;;;;;;;;5097573;28;19908;-73
2023/11/19 03:22:16;;;;;;;;;;;;;;;;;;5097172;28;19958;-74
2023/11/19 03:24:42;;;;;;;;;;;;;;;;;;5097560;28;19916;-74
2023/11/19 03:27:08;;;;;;;;;;;;;;;;;;5097543;28;19908;-74
2023/11/19 03:29:34;;;;;;;;;;;;;;;;;;5096758;28;19920;-73
2023/11/19 03:32:00;;;;;;;;;;;;;;;;;;5097584;28;19919;-74
2023/11/19 03:34:26;;;;;;;;;;;;;;;;;;5096043;28;19912;-73
2023/11/19 03:36:52;;;;;;;;;;;;;;;;;;5097187;28;19908;-74
2023/11/19 03:39:18;;;;;;;;;;;;;;;;;;5097265;28;19908;-73
2023/11/19 03:41:44;;;;;;;;;;;;;;;;;;5097358;28;19915;-73
2023/11/19 03:44:09;;;;;;;;;;;;;;;;;;5096942;28;19915;-73
2023/11/19 03:46:36;;;;;;;;;;;;;;;;;;5097110;28;19912;-73
2023/11/19 03:49:03;;;;;;;;;;;;;;;;;;5097106;28;20008;-73
2023/11/19 03:51:29;;;;;;;;;;;;;;;;;;5096582;28;19923;-73
2023/11/19 03:53:55;;;;;;;;;;;;;;;;;;5096993;28;19912;-73
2023/11/19 03:56:21;;;;;;;;;;;;;;;;;;5096974;28;19953;-73
2023/11/19 03:58:47;;;;;;;;;;;;;;;;;;5096397;28;19914;-73
2023/11/19 04:01:13;;;;;;;;;;;;;;;;;;5096818;28;19912;-73
2023/11/19 04:03:39;;;;;;;;;;;;;;;;;;5095547;28;19951;-73
2023/11/19 04:06:05;;;;;;;;;;;;;;;;;;5096382;28;19908;-73
2023/11/19 04:08:31;;;;;;;;;;;;;;;;;;5096651;28;20356;-73
2023/11/19 04:10:57;;;;;;;;;;;;;;;;;;5096674;28;19923;-73
2023/11/19 04:13:24;;;;;;;;;;;;;;;;;;5095759;28;19908;-74
2023/11/19 04:15:50;;;;;;;;;;;;;;;;;;5096442;28;19908;-73
2023/11/19 04:18:16;;;;;;;;;;;;;;;;;;5096185;28;20008;-74
2023/11/19 04:20:44;;;;;;;;;;;;;;;;;;5096522;28;19909;-74
2023/11/19 04:23:11;;;;;;;;;;;;;;;;;;5096799;28;19931;-74
2023/11/19 04:25:37;;;;;;;;;;;;;;;;;;5094736;28;20291;-74
2023/11/19 04:28:03;;;;;;;;;;;;;;;;;;5096327;28;19937;-73
2023/11/19 04:30:28;;;;;;;;;;;;;;;;;;5096207;28;19917;-74
2023/11/19 04:32:54;;;;;;;;;;;;;;;;;;5094459;28;19947;-74
2023/11/19 04:35:21;;;;;;;;;;;;;;;;;;5096267;28;20367;-74
2023/11/19 04:37:48;;;;;;;;;;;;;;;;;;5094903;28;19908;-72
2023/11/19 04:40:14;;;;;;;;;;;;;;;;;;5095982;28;20003;-73
2023/11/19 04:42:43;;;;;;;;;;;;;;;;;;5096047;28;19947;-73
2023/11/19 04:45:10;;;;;;;;;;;;;;;;;;5096042;28;19962;-73
2023/11/19 04:47:36;;;;;;;;;;;;;;;;;;5095680;28;20353;-73
2023/11/19 04:50:02;;;;;;;;;;;;;;;;;;5095864;28;19916;-74
2023/11/19 04:52:28;;;;;;;;;;;;;;;;;;5095839;28;19908;-73
2023/11/19 04:54:54;;;;;;;;;;;;;;;;;;5094203;28;19912;-73
2023/11/19 04:57:20;;;;;;;;;;;;;;;;;;5095790;28;19909;-74
2023/11/19 04:59:46;;;;;;;;;;;;;;;;;;5095882;28;19912;-73
2023/11/19 05:02:12;;;;;;;;;;;;;;;;;;5095452;28;20304;-73
2023/11/19 05:04:38;;;;;;;;;;;;;;;;;;5094363;28;20042;-72
2023/11/19 05:07:04;;;;;;;;;;;;;;;;;;5095636;28;20351;-72
2023/11/19 05:09:30;;;;;;;;;;;;;;;;;;5093767;28;19909;-72
2023/11/19 05:11:56;;;;;;;;;;;;;;;;;;5095662;28;19915;-73
2023/11/19 05:14:24;;;;;;;;;;;;;;;;;;5094171;28;19908;-73
2023/11/19 05:16:50;;;;;;;;;;;;;;;;;;5095092;28;19908;-72
2023/11/19 05:19:16;;;;;;;;;;;;;;;;;;5095329;28;19919;-73
2023/11/19 05:21:42;;;;;;;;;;;;;;;;;;5094886;28;19961;-73
2023/11/19 05:24:08;;;;;;;;;;;;;;;;;;5095253;28;19909;-73
2023/11/19 05:26:34;;;;;;;;;;;;;;;;;;5095206;28;19908;-73
2023/11/19 05:28:59;;;;;;;;;;;;;;;;;;5094745;28;19919;-73
2023/11/19 05:31:25;;;;;;;;;;;;;;;;;;5094972;28;20286;-73
2023/11/19 05:33:51;;;;;;;;;;;;;;;;;;5095066;28;19963;-73
2023/11/19 05:36:17;;;;;;;;;;;;;;;;;;5094663;28;19915;-73
2023/11/19 05:38:44;;;;;;;;;;;;;;;;;;5094895;28;19995;-72
2023/11/19 05:41:10;;;;;;;;;;;;;;;;;;5095329;28;20343;-73
2023/11/19 05:43:37;;;;;;;;;;;;;;;;;;5094459;28;20061;-73
2023/11/19 05:46:03;;;;;;;;;;;;;;;;;;5094922;28;19912;-72
2023/11/19 05:48:29;;;;;;;;;;;;;;;;;;5094789;28;19915;-72
2023/11/19 05:50:55;;;;;;;;;;;;;;;;;;5094263;28;19916;-73
2023/11/19 05:53:21;;;;;;;;;;;;;;;;;;5094854;28;19917;-72
2023/11/19 05:55:54;;;;;;;;;;;;;;;;;;5094635;28;19912;-72
2023/11/19 05:58:20;;;;;;;;;;;;;;;;;;5094367;28;19914;-72
2023/11/19 06:00:46;;;;;;;;;;;;;;;;;;5094549;28;19912;-72
2023/11/19 06:03:12;;;;;;;;;;;;;;;;;;5094502;28;19908;-72
2023/11/19 06:05:38;;;;;;;;;;;;;;;;;;5094083;28;19970;-72
2023/11/19 06:08:06;;;;;;;;;;;;;;;;;;5094339;28;19908;-72
2023/11/19 06:10:32;;;;;;;;;;;;;;;;;;5094346;28;19923;-72
2023/11/19 06:12:59;;;;;;;;;;;;;;;;;;5093932;28;19908;-73
2023/11/19 06:15:25;;;;;;;;;;;;;;;;;;5092991;28;20329;-72
2023/11/19 06:17:51;;;;;;;;;;;;;;;;;;5093950;28;19930;-72
2023/11/19 06:20:19;;;;;;;;;;;;;;;;;;5094485;28;20049;-72
2023/11/19 06:22:45;;;;;;;;;;;;;;;;;;5092905;28;19908;-72
2023/11/19 06:25:11;;;;;;;;;;;;;;;;;;5093807;28;19915;-73
2023/11/19 06:27:38;;;;;;;;;;;;;;;;;;5094108;28;19915;-73
2023/11/19 06:30:04;;;;;;;;;;;;;;;;;;5093850;28;19923;-73
2023/11/19 06:32:30;;;;;;;;;;;;;;;;;;5093656;28;19908;-72
2023/11/19 06:34:56;;;;;;;;;;;;;;;;;;5094096;28;20378;-73
2023/11/19 06:37:22;;;;;;;;;;;;;;;;;;5093706;28;19950;-72
2023/11/19 06:39:47;;;;;;;;;;;;;;;;;;5093588;28;19947;-72
2023/11/19 06:42:13;;;;;;;;;;;;;;;;;;5094000;28;19954;-72
2023/11/19 06:44:39;;;;;;;;;;;;;;;;;;5094100;28;19908;-73
2023/11/19 06:47:06;;;;;;;;;;;;;;;;;;5092215;28;19919;-72
2023/11/19 06:49:32;;;;;;;;;;;;;;;;;;5092598;28;19908;-73
2023/11/19 06:51:58;;;;;;;;;;;;;;;;;;5093864;28;19908;-74
2023/11/19 06:54:24;;;;;;;;;;;;;;;;;;5093476;28;19908;-73
2023/11/19 06:56:50;;;;;;;;;;;;;;;;;;5094016;28;19915;-73
2023/11/19 06:59:16;;;;;;;;;;;;;;;;;;5094014;28;19912;-73
2023/11/19 07:01:43;;;;;;;;;;;;;;;;;;5093431;28;19908;-73
2023/11/19 07:04:09;;;;;;;;;;;;;;;;;;5093838;28;20333;-73
2023/11/19 07:06:35;;;;;;;;;;;;;;;;;;5093846;28;19939;-73
2023/11/19 07:09:09;;;;;;;;;;;;;;;;;;5093448;28;19965;-73
2023/11/19 07:11:35;;;;;;;;;;;;;;;;;;5093786;28;20261;-73
2023/11/19 07:14:01;;;;;;;;;;;;;;;;;;5093770;28;19922;-73
2023/11/19 07:16:28;;;;;;;;;;;;;;;;;;5093646;28;19914;-73
2023/11/19 07:18:54;;;;;;;;;;;;;;;;;;5093694;28;19908;-73
2023/11/19 07:21:20;;;;;;;;;;;;;;;;;;5093219;28;19914;-73
2023/11/19 07:23:46;;;;;;;;;;;;;;;;;;5093561;28;19957;-73
2023/11/19 07:26:12;;;;;;;;;;;;;;;;;;5093605;28;20341;-74
2023/11/19 07:28:39;;;;;;;;;;;;;;;;;;5093125;28;19956;-74
2023/11/19 07:31:07;;;;;;;;;;;;;;;;;;5093424;28;19923;-74
2023/11/19 07:33:33;;;;;;;;;;;;;;;;;;5093521;28;19953;-73
2023/11/19 07:35:59;;;;;;;;;;;;;;;;;;5093173;28;20378;-74
2023/11/19 07:38:25;;;;;;;;;;;;;;;;;;5093411;28;20028;-75
2023/11/19 07:40:51;;;;;;;;;;;;;;;;;;5093829;28;19908;-74
2023/11/19 07:43:17;;;;;;;;;;;;;;;;;;5092996;28;20348;-74
2023/11/19 07:45:44;;;;;;;;;;;;;;;;;;5093394;28;20384;-72
2023/11/19 07:48:12;;;;;;;;;;;;;;;;;;5092096;28;20022;-73
2023/11/19 07:50:38;;;;;;;;;;;;;;;;;;5095781;28;19996;-75
2023/11/19 07:53:04;;;;;;;;;;;;;;;;;;5097207;28;19912;-74
2023/11/19 07:55:30;;;;;;;;;;;;;;;;;;5096971;28;19908;-74
2023/11/19 07:57:56;;;;;;;;;;;;;;;;;;5096601;28;20010;-75
2023/11/19 08:00:22;;;;;;;;;;;;;;;;;;5096889;28;19915;-73
2023/11/19 08:02:48;;;;;;;;;;;;;;;;;;5097144;28;19915;-75
2023/11/19 08:05:14;;;;;;;;;;;;;;;;;;5096420;28;19912;-74
2023/11/19 08:07:40;;;;;;;;;;;;;;;;;;5096781;28;19908;-74
2023/11/19 08:10:09;;;;;;;;;;;;;;;;;;5096654;28;19927;-73
2023/11/19 08:12:35;;;;;;;;;;;;;;;;;;5096282;28;20061;-74
2023/11/19 08:15:01;;;;;;;;;;;;;;;;;;5096610;28;19912;-74
2023/11/19 08:17:27;;;;;;;;;;;;;;;;;;5094904;28;20045;-74
2023/11/19 08:19:53;;;;;;;;;;;;;;;;;;5096683;28;19908;-73
2023/11/19 08:22:19;;;;;;;;;;;;;;;;;;5096486;28;20321;-73
2023/11/19 08:24:45;;;;;;;;;;;;;;;;;;5094742;28;20288;-73
2023/11/19 08:27:11;;;;;;;;;;;;;;;;;;5096412;28;19908;-74
2023/11/19 08:29:37;;;;;;;;;;;;;;;;;;5096058;28;19919;-74
2023/11/19 08:32:03;;;;;;;;;;;;;;;;;;5096072;28;19912;-74
2023/11/19 08:34:29;;;;;;;;;;;;;;;;;;5094805;28;19930;-74
2023/11/19 08:36:55;;;;;;;;;;;;;;;;;;5094725;28;19908;-74
2023/11/19 08:39:21;;;;;;;;;;;;;;;;;;5095639;28;19944;-74
2023/11/19 08:41:48;;;;;;;;;;;;;;;;;;5096092;28;19999;-75
2023/11/19 08:44:14;;;;;;;;;;;;;;;;;;5095788;28;19915;-74
2023/11/19 08:46:39;;;;;;;;;;;;;;;;;;5095574;28;20003;-73
2023/11/19 08:49:08;;;;;;;;;;;;;;;;;;5095801;28;19912;-74
2023/11/19 08:51:34;;;;;;;;;;;;;;;;;;5095745;28;19923;-74
2023/11/19 08:54:00;;;;;;;;;;;;;;;;;;5095292;28;19909;-74
2023/11/19 08:56:31;;;;;;;;;;;;;;;;;;5095547;28;19916;-75
2023/11/19 08:58:57;;;;;;;;;;;;;;;;;;5095653;28;19908;-74
2023/11/19 09:01:24;;;;;;;;;;;;;;;;;;5094754;28;19916;-75
2023/11/19 09:03:50;;;;;;;;;;;;;;;;;;5095516;28;19914;-74
2023/11/19 09:06:16;;;;;;;;;;;;;;;;;;5095304;28;20003;-74
2023/11/19 09:08:42;;;;;;;;;;;;;;;;;;5094930;28;19914;-75
2023/11/19 09:11:11;;;;;;;;;;;;;;;;;;5095333;28;19963;-74
2023/11/19 09:13:37;;;;;;;;;;;;;;;;;;5095285;28;19944;-74
2023/11/19 09:16:03;;;;;;;;;;;;;;;;;;5095256;28;19962;-74
2023/11/19 09:18:29;;;;;;;;;;;;;;;;;;5095378;28;19915;-75
2023/11/19 09:20:55;;;;;;;;;;;;;;;;;;5094981;28;20002;-75
2023/11/19 09:23:21;;;;;;;;;;;;;;;;;;5093784;28;19915;-75
2023/11/19 09:25:47;;;;;;;;;;;;;;;;;;5095137;28;19908;-75
2023/11/19 09:28:14;;;;;;;;;;;;;;;;;;5094427;28;19916;-74
2023/11/19 09:30:40;;;;;;;;;;;;;;;;;;5094973;28;19916;-74
2023/11/19 09:33:06;;;;;;;;;;;;;;;;;;5094938;28;19912;-74
2023/11/19 09:35:32;;;;;;;;;;;;;;;;;;5094460;28;20003;-74
2023/11/19 09:37:59;;;;;;;;;;;;;;;;;;5094897;28;19908;-75
2023/11/19 09:40:24;;;;;;;;;;;;;;;;;;5094723;28;19912;-75
2023/11/19 09:42:50;;;;;;;;;;;;;;;;;;5094325;28;19931;-75
2023/11/19 09:45:17;;;;;;;;;;;;;;;;;;5094528;28;20007;-74
2023/11/19 09:47:43;;;;;;;;;;;;;;;;;;5094637;28;19915;-75
2023/11/19 09:50:09;;;;;;;;;;;;;;;;;;5094110;28;20360;-74
2023/11/19 09:52:35;;;;;;;;;;;;;;;;;;5094703;28;19966;-74
2023/11/19 09:55:01;;;;;;;;;;;;;;;;;;5094586;28;19919;-74
2023/11/19 09:57:27;;;;;;;;;;;;;;;;;;5094167;28;19908;-74
2023/11/19 09:59:53;;;;;;;;;;;;;;;;;;5094445;28;19930;-72
2023/11/19 10:02:19;;;;;;;;;;;;;;;;;;5076049;28;19991;-75
2023/11/19 10:04:46;;;;;;;;;;;;;;;;;;5094061;28;19908;-75
2023/11/19 10:07:12;;;;;;;;;;;;;;;;;;5094307;28;20371;-75
2023/11/19 10:09:38;;;;;;;;;;;;;;;;;;5094178;28;19947;-75
2023/11/19 10:12:05;;;;;;;;;;;;;;;;;;5093076;28;19912;-74
2023/11/19 10:14:31;;;;;;;;;;;;;;;;;;5094315;28;19912;-75
2023/11/19 10:16:57;;;;;;;;;;;;;;;;;;5093786;28;19931;-75
2023/11/19 10:19:23;;;;;;;;;;;;;;;;;;5076048;28;19908;-75
2023/11/19 10:21:49;;;;;;;;;;;;;;;;;;5094145;28;19908;-75
2023/11/19 10:24:15;;;;;;;;;;;;;;;;;;5075430;28;19914;-75
2023/11/19 10:26:42;;;;;;;;;;;;;;;;;;5094117;28;19908;-75
2023/11/19 10:29:08;;;;;;;;;;;;;;;;;;5093863;28;19920;-75
2023/11/19 10:31:34;;;;;;;;;;;;;;;;;;5093430;28;20019;-74
2023/11/19 10:34:02;;;;;;;;;;;;;;;;;;5092871;28;21361;-75
2023/11/19 10:36:28;;;;;;;;;;;;;;;;;;5075663;28;19954;-75
2023/11/19 10:38:54;;;;;;;;;;;;;;;;;;5093782;28;19908;-75
2023/11/19 10:41:19;;;;;;;;;;;;;;;;;;5093901;28;19914;-75
2023/11/19 10:43:45;;;;;;;;;;;;;;;;;;5093926;28;19908;-75
2023/11/19 10:46:11;;;;;;;;;;;;;;;;;;5075441;28;19914;-75
2023/11/19 10:48:37;;;;;;;;;;;;;;;;;;5075816;28;20372;-75
2023/11/19 10:51:03;;;;;;;;;;;;;;;;;;5077317;28;19922;-74
2023/11/19 10:53:30;;;;;;;;;;;;;;;;;;5093414;28;19908;-74
2023/11/19 10:57:34;;;;;;;;;;;;;;;;;;5091756;27;19917;-73
2023/11/19 11:00:01;;;;;;;;;;;;;;;;;;5090926;28;19913;-73
2023/11/19 11:02:27;;;;;;;;;;;;;;;;;;5089982;28;19908;-74
2023/11/19 11:04:53;;;;;;;;;;;;;;;;;;5091338;28;19958;-73
2023/11/19 11:07:19;;;;;;;;;;;;;;;;;;5090745;28;19943;-74
2023/11/19 11:10:25;;;;;;;;;;;;;;;;;;5071073;28;19947;-73
2023/11/19 11:12:56;;;;;;;;;;;;;;;;;;5071199;28;19963;-74
2023/11/19 11:15:22;;;;;;;;;;;;;;;;;;5070750;28;19909;-73
2023/11/19 11:18:20;;;;;;;;;;;;;;;;;;5091836;27;19923;-73
2023/11/19 11:20:46;;;;;;;;;;;;;;;;;;5090935;28;19991;-73
2023/11/19 11:23:12;;;;;;;;;;;;;;;;;;5090085;28;19913;-73
2023/11/19 11:25:38;;;;;;;;;;;;;;;;;;5091553;28;19908;-74
2023/11/19 11:28:03;;;;;;;;;;;;;;;;;;5089477;28;20273;-74
2023/11/19 11:30:29;;;;;;;;;;;;;;;;;;5091328;28;19912;-74
2023/11/19 11:32:56;;;;;;;;;;;;;;;;;;5091281;28;19937;-73
2023/11/19 11:35:22;;;;;;;;;;;;;;;;;;5090700;28;19908;-74
2023/11/19 11:37:48;;;;;;;;;;;;;;;;;;5089760;28;19923;-74
2023/11/19 11:40:15;;;;;;;;;;;;;;;;;;5091051;28;19909;-74
2023/11/19 11:42:41;;;;;;;;;;;;;;;;;;5090512;28;19915;-74
2023/11/19 11:45:08;;;;;;;;;;;;;;;;;;5091274;28;19913;-74
2023/11/19 11:47:34;;;;;;;;;;;;;;;;;;5089617;28;19915;-74
2023/11/19 11:49:59;;;;;;;;;;;;;;;;;;5090493;28;19912;-74
2023/11/19 11:53:31;;;;;;;;;;;;;;;;;;5092052;27;19920;-73
2023/11/19 11:55:58;;;;;;;;;;;;;;;;;;5091111;28;19955;-73
2023/11/19 11:58:24;;;;;;;;;;;;;;;;;;5091252;28;19908;-74
2023/11/19 12:00:51;;;;;;;;;;;;;;;;;;5091249;28;19995;-72
2023/11/19 12:03:17;;;;;;;;;;;;;;;;;;5091269;28;19954;-74
2023/11/19 12:05:43;;;;;;;;;;;;;;;;;;5089870;28;19909;-74
2023/11/19 12:08:10;;;;;;;;;;;;;;;;;;5091137;28;20425;-74
2023/11/19 12:10:37;;;;;;;;;;;;;;;;;;5091004;28;20349;-74
2023/11/19 12:13:04;;;;;;;;;;;;;;;;;;5090941;28;20368;-74
2023/11/19 12:15:30;;;;;;;;;;;;;;;;;;5090871;28;20037;-74
2023/11/19 12:17:56;;;;;;;;;;;;;;;;;;5090432;28;20007;-74
2023/11/19 12:20:22;;;;;;;;;;;;;;;;;;5090843;28;19931;-73
2023/11/19 12:22:49;;;;;;;;;;;;;;;;;;5090735;28;19914;-73
2023/11/19 12:25:16;;;;;;;;;;;;;;;;;;5090393;28;19908;-73
2023/11/19 12:27:42;;;;;;;;;;;;;;;;;;5090736;28;19908;-74
2023/11/19 12:30:08;;;;;;;;;;;;;;;;;;5090649;28;19908;-74
2023/11/19 12:32:34;;;;;;;;;;;;;;;;;;5090102;28;19916;-74
2023/11/19 12:35:00;;;;;;;;;;;;;;;;;;5090802;28;19919;-74
2023/11/19 12:37:26;;;;;;;;;;;;;;;;;;5090547;28;19916;-75
2023/11/19 12:39:52;;;;;;;;;;;;;;;;;;5090032;28;19908;-74
2023/11/19 12:42:18;;;;;;;;;;;;;;;;;;5090437;28;19916;-75
2023/11/19 12:44:44;;;;;;;;;;;;;;;;;;5089983;28;19912;-75
2023/11/19 12:47:11;;;;;;;;;;;;;;;;;;5090609;28;19920;-75
2023/11/19 12:49:37;;;;;;;;;;;;;;;;;;5090263;28;20001;-75
2023/11/19 12:52:03;;;;;;;;;;;;;;;;;;5097922;28;19970;-73
2023/11/19 12:54:29;;;;;;;;;;;;;;;;;;5110475;28;19915;-73
2023/11/19 12:58:47;;;;;;;;;;;;;;;;;;5090973;27;19922;-73
2023/11/19 13:05:51;;;;;;;;;;;;;;;;;;5091197;27;20380;-75
2023/11/19 13:09:57;;;;;;;;;;;;;;;;;;5091931;27;19917;-73
2023/11/19 13:12:23;;;;;;;;;;;;;;;;;;5091688;28;20392;-74
2023/11/19 13:14:49;;;;;;;;;;;;;;;;;;5090782;28;20004;-73
2023/11/19 13:17:15;;;;;;;;;;;;;;;;;;5091217;28;19909;-73
2023/11/19 13:19:41;;;;;;;;;;;;;;;;;;5089926;28;19920;-73
2023/11/19 13:22:08;;;;;;;;;;;;;;;;;;5090723;28;19915;-73
2023/11/19 13:24:34;;;;;;;;;;;;;;;;;;5091400;28;19943;-73
2023/11/19 13:27:00;;;;;;;;;;;;;;;;;;5090649;28;19934;-73
2023/11/19 13:29:26;;;;;;;;;;;;;;;;;;5091140;28;20014;-73
2023/11/19 13:35:29;;;;;;;;;;;;;;;;;;5091213;28;19916;-73
2023/11/19 13:37:55;;;;;;;;;;;;;;;;;;5091249;28;19955;-73
2023/11/19 13:40:22;;;;;;;;;;;;;;;;;;5091164;28;20253;-74
2023/11/19 13:42:48;;;;;;;;;;;;;;;;;;5089520;28;19909;-73
2023/11/19 13:45:14;;;;;;;;;;;;;;;;;;5090950;28;19908;-74
2023/11/19 13:47:41;;;;;;;;;;;;;;;;;;5091218;28;20205;-74
2023/11/19 13:50:07;;;;;;;;;;;;;;;;;;5090623;28;19915;-73
2023/11/19 13:52:33;;;;;;;;;;;;;;;;;;5091087;28;20309;-74
2023/11/19 13:54:58;;;;;;;;;;;;;;;;;;5089092;28;20412;-74
2023/11/19 13:57:24;;;;;;;;;;;;;;;;;;5090874;28;19987;-73
2023/11/19 14:00:41;;;;;;;;;;;;;;;;;;5071633;28;19923;-74
2023/11/19 14:03:07;;;;;;;;;;;;;;;;;;5070626;28;20372;-73
2023/11/19 14:05:33;;;;;;;;;;;;;;;;;;5071076;28;19992;-73
2023/11/19 14:08:01;;;;;;;;;;;;;;;;;;5069723;28;19976;-73
2023/11/19 14:10:27;;;;;;;;;;;;;;;;;;5070580;28;19935;-73
2023/11/19 14:14:20;;;;;;;;;;;;;;;;;;5091894;27;20240;-73
2023/11/19 14:16:46;;;;;;;;;;;;;;;;;;5091017;28;20384;-72
2023/11/19 14:19:44;;;;;;;;;;;;;;;;;;5111819;27;19916;-73
2023/11/19 14:22:10;;;;;;;;;;;;;;;;;;5111671;28;20459;-73
2023/11/19 14:24:36;;;;;;;;;;;;;;;;;;5111284;28;19916;-73
2023/11/19 14:27:02;;;;;;;;;;;;;;;;;;5111384;28;19908;-73
2023/11/19 14:29:31;;;;;;;;;;;;;;;;;;5110190;28;19909;-73
2023/11/19 14:31:58;;;;;;;;;;;;;;;;;;5111111;28;19908;-74
2023/11/19 14:36:07;;;;;;;;;;;;;;;;;;5112327;27;19916;-73
2023/11/19 14:38:33;;;;;;;;;;;;;;;;;;5111386;28;20456;-73
2023/11/19 14:40:59;;;;;;;;;;;;;;;;;;5111664;28;19943;-73
2023/11/19 14:43:26;;;;;;;;;;;;;;;;;;5111594;28;19908;-74
2023/11/19 14:45:52;;;;;;;;;;;;;;;;;;5111228;28;19915;-74
2023/11/19 14:48:18;;;;;;;;;;;;;;;;;;5110175;28;19951;-74
2023/11/19 14:50:46;;;;;;;;;;;;;;;;;;5110425;28;19912;-74
2023/11/19 14:53:12;;;;;;;;;;;;;;;;;;5111011;28;20003;-74
2023/11/19 14:55:38;;;;;;;;;;;;;;;;;;5111593;28;20411;-74
2023/11/19 14:58:05;;;;;;;;;;;;;;;;;;5111475;28;19995;-74
2023/11/19 15:00:31;;;;;;;;;;;;;;;;;;5109686;28;20372;-75
2023/11/19 15:02:57;;;;;;;;;;;;;;;;;;5109837;28;20045;-73
2023/11/19 15:05:23;;;;;;;;;;;;;;;;;;5111006;28;19954;-73
2023/11/19 15:07:49;;;;;;;;;;;;;;;;;;5111056;28;19915;-74
2023/11/19 15:10:15;;;;;;;;;;;;;;;;;;5111285;28;19908;-73
2023/11/19 15:12:41;;;;;;;;;;;;;;;;;;5110659;28;19947;-75
2023/11/19 15:15:08;;;;;;;;;;;;;;;;;;5111188;28;20364;-73
2023/11/19 15:17:35;;;;;;;;;;;;;;;;;;5110898;28;19946;-73
2023/11/19 15:20:01;;;;;;;;;;;;;;;;;;5110423;28;20007;-75
2023/11/19 15:22:28;;;;;;;;;;;;;;;;;;5111093;28;20380;-74
2023/11/19 15:24:53;;;;;;;;;;;;;;;;;;5110901;28;19981;-76
2023/11/19 15:27:19;;;;;;;;;;;;;;;;;;5110394;28;19912;-74
2023/11/19 15:29:46;;;;;;;;;;;;;;;;;;5110842;28;20398;-73
2023/11/19 15:32:11;;;;;;;;;;;;;;;;;;5110717;28;19908;-75
2023/11/19 15:34:39;;;;;;;;;;;;;;;;;;5110072;28;19920;-74
2023/11/19 15:37:05;;;;;;;;;;;;;;;;;;5110792;28;19954;-73
2023/11/19 15:39:32;;;;;;;;;;;;;;;;;;5110864;28;19915;-74
2023/11/19 15:41:59;;;;;;;;;;;;;;;;;;5110087;28;19998;-75
2023/11/19 15:44:25;;;;;;;;;;;;;;;;;;5109477;28;20299;-74
2023/11/19 15:46:51;;;;;;;;;;;;;;;;;;5100071;28;19949;-75
2023/11/19 15:49:17;;;;;;;;;;;;;;;;;;5096289;28;19908;-74
2023/11/19 15:51:43;;;;;;;;;;;;;;;;;;5096699;28;19930;-72
2023/11/19 15:54:09;;;;;;;;;;;;;;;;;;5096587;28;19951;-73
2023/11/19 15:56:34;;;;;;;;;;;;;;;;;;5096284;28;19912;-74
2023/11/19 15:59:00;;;;;;;;;;;;;;;;;;5096631;28;19931;-74
2023/11/19 16:01:28;;;;;;;;;;;;;;;;;;5095206;28;19947;-75
2023/11/19 16:03:53;;;;;;;;;;;;;;;;;;5094924;28;19998;-74
2023/11/19 16:06:20;;;;;;;;;;;;;;;;;;5096401;28;19995;-74
2023/11/19 16:08:46;;;;;;;;;;;;;;;;;;5096091;28;19912;-73
2023/11/19 16:11:13;;;;;;;;;;;;;;;;;;5095359;28;19908;-73
2023/11/19 16:13:38;;;;;;;;;;;;;;;;;;5096261;28;19969;-76
2023/11/19 16:16:04;;;;;;;;;;;;;;;;;;5094649;28;19912;-74
2023/11/19 16:18:32;;;;;;;;;;;;;;;;;;5096190;28;20398;-73
2023/11/19 16:20:58;;;;;;;;;;;;;;;;;;5096092;28;20304;-74
2023/11/19 16:23:24;;;;;;;;;;;;;;;;;;5095771;28;19954;-74
2023/11/19 16:25:49;;;;;;;;;;;;;;;;;;5094840;28;19908;-74
2023/11/19 16:28:17;;;;;;;;;;;;;;;;;;5094763;28;19912;-75
2023/11/19 16:30:43;;;;;;;;;;;;;;;;;;5095562;28;19942;-75
2023/11/19 16:33:09;;;;;;;;;;;;;;;;;;5095871;28;19908;-75
2023/11/19 16:35:34;;;;;;;;;;;;;;;;;;5091412;28;20053;-74
2023/11/19 16:38:06;;;;;;;;;;;;;;;;;;5094077;28;19947;-74
2023/11/19 16:40:32;;;;;;;;;;;;;;;;;;5095831;28;19908;-74
2023/11/19 16:42:58;;;;;;;;;;;;;;;;;;5094316;28;20287;-74
2023/11/19 16:45:24;;;;;;;;;;;;;;;;;;5095172;28;19908;-74
2023/11/19 16:47:51;;;;;;;;;;;;;;;;;;5094200;28;20276;-74
2023/11/19 16:50:17;;;;;;;;;;;;;;;;;;5093974;28;20257;-74
2023/11/19 16:52:43;;;;;;;;;;;;;;;;;;5093649;28;19917;-74
2023/11/19 16:55:12;;;;;;;;;;;;;;;;;;5095432;28;19922;-74
2023/11/19 16:57:38;;;;;;;;;;;;;;;;;;5094382;28;19913;-74
2023/11/19 17:00:04;;;;;;;;;;;;;;;;;;5095303;28;20287;-74